createdAt,value
2022-11-26T00:04:57.504Z,0
2022-11-26T00:09:57.384Z,0
2022-11-26T00:14:57.193Z,0
2022-11-26T00:19:57.377Z,0
2022-11-26T00:24:57.482Z,0
2022-11-26T00:29:57.471Z,0
2022-11-26T00:34:57.422Z,0
2022-11-26T00:39:57.090Z,0
2022-11-26T00:44:57.526Z,0
2022-11-26T00:49:57.337Z,0
2022-11-26T00:54:57.186Z,0
2022-11-26T00:59:57.749Z,0
2022-11-26T01:04:57.108Z,0
2022-11-26T01:09:57.143Z,0
2022-11-26T01:14:57.119Z,0
2022-11-26T01:19:57.184Z,0
2022-11-26T01:24:57.213Z,0
2022-11-26T01:29:57.366Z,0
2022-11-26T01:34:57.201Z,0
2022-11-26T01:39:57.292Z,0
2022-11-26T01:44:57.568Z,0
2022-11-26T01:49:57.145Z,0
2022-11-26T01:54:57.171Z,0
2022-11-26T01:59:57.383Z,0
2022-11-26T02:05:01.966Z,0
2022-11-26T02:09:57.203Z,0
2022-11-26T02:14:57.340Z,0
2022-11-26T02:19:57.220Z,0
2022-11-26T02:24:57.343Z,0
2022-11-26T02:29:57.267Z,0
2022-11-26T02:34:57.099Z,0
2022-11-26T02:39:57.295Z,0
2022-11-26T02:44:57.016Z,0
2022-11-26T02:49:57.077Z,0
2022-11-26T02:54:57.554Z,0
2022-11-26T02:59:57.245Z,0
2022-11-26T03:04:58.894Z,0
2022-11-26T03:09:57.202Z,0
2022-11-26T03:14:57.291Z,0
2022-11-26T03:19:57.486Z,0
2022-11-26T03:24:57.169Z,0
2022-11-26T03:29:57.089Z,0
2022-11-26T03:34:57.491Z,0
2022-11-26T03:39:57.128Z,0
2022-11-26T03:44:57.222Z,0
2022-11-26T03:49:57.269Z,0
2022-11-26T03:54:57.155Z,0
2022-11-26T03:59:57.264Z,0
2022-11-26T04:04:57.148Z,0
2022-11-26T04:09:57.334Z,0
2022-11-26T04:14:57.062Z,0
2022-11-26T04:19:57.004Z,0
2022-11-26T04:24:56.873Z,0
2022-11-26T04:29:57.405Z,0
2022-11-26T04:34:57.215Z,0
2022-11-26T04:39:56.903Z,0
2022-11-26T04:44:56.983Z,0
2022-11-26T04:49:57.239Z,0
2022-11-26T04:54:56.905Z,0
2022-11-26T04:59:57.132Z,0
2022-11-26T05:04:57.089Z,0
2022-11-26T05:09:56.908Z,0
2022-11-26T05:14:57.028Z,0
2022-11-26T05:19:57.235Z,0
2022-11-26T05:24:56.902Z,0
2022-11-26T05:29:57.041Z,0
2022-11-26T05:35:00.064Z,0
2022-11-26T05:39:57.023Z,0
2022-11-26T05:44:56.933Z,0
2022-11-26T05:49:57.106Z,0
2022-11-26T05:54:56.922Z,0
2022-11-26T05:59:57.417Z,0
2022-11-26T06:04:57.063Z,0
2022-11-26T06:09:56.824Z,0
2022-11-26T06:14:56.996Z,0
2022-11-26T06:19:56.906Z,0
2022-11-26T06:24:57.278Z,0
2022-11-26T06:29:57.168Z,0
2022-11-26T06:34:56.924Z,0
2022-11-26T06:39:56.817Z,0
2022-11-26T06:44:59.846Z,0
2022-11-26T06:49:56.961Z,0
2022-11-26T06:54:56.982Z,0
2022-11-26T06:59:56.799Z,0
2022-11-26T07:04:56.961Z,0
2022-11-26T07:09:56.871Z,0
2022-11-26T07:14:57.109Z,0.4
2022-11-26T07:19:57.114Z,1
2022-11-26T07:24:57.056Z,1.5
2022-11-26T07:29:56.981Z,2.2
2022-11-26T07:34:57.030Z,2.4
2022-11-26T07:39:56.941Z,2.9
2022-11-26T07:44:57.279Z,3.6
2022-11-26T07:49:56.814Z,4.4
2022-11-26T07:54:57.124Z,5.5
2022-11-26T07:59:56.812Z,6.6
2022-11-26T08:04:56.994Z,7.9
2022-11-26T08:09:56.973Z,8.6
2022-11-26T08:14:56.908Z,8.4
2022-11-26T08:19:56.760Z,8.3
2022-11-26T08:24:57.147Z,10.9
2022-11-26T08:29:56.811Z,14.1
2022-11-26T08:34:56.891Z,15.7
2022-11-26T08:39:56.859Z,19.3
2022-11-26T08:44:56.735Z,21.5
2022-11-26T08:49:57.030Z,24.2
2022-11-26T08:54:56.758Z,29.5
2022-11-26T08:59:56.901Z,33.7
2022-11-26T09:04:56.850Z,35.3
2022-11-26T09:09:56.745Z,36.6
2022-11-26T09:14:56.662Z,37.2
2022-11-26T09:19:56.853Z,38.3
2022-11-26T09:24:56.944Z,41.4
2022-11-26T09:29:56.805Z,43.8
2022-11-26T09:34:56.771Z,41.6
2022-11-26T09:39:56.761Z,39.3
2022-11-26T09:44:56.613Z,43.2
2022-11-26T09:49:56.739Z,46.4
2022-11-26T09:55:01.354Z,48.3
2022-11-26T09:59:56.946Z,52.3
2022-11-26T10:04:56.596Z,56.1
2022-11-26T10:09:56.766Z,54.5
2022-11-26T10:14:59.873Z,50
2022-11-26T10:19:56.904Z,65.5
2022-11-26T10:24:56.699Z,82.9
2022-11-26T10:29:58.945Z,88.4
2022-11-26T10:34:57.359Z,90.1
2022-11-26T10:40:00.085Z,87.7
2022-11-26T10:45:14.720Z,90.7
2022-11-26T10:49:56.756Z,84
2022-11-26T10:55:19.922Z,75.4
2022-11-26T10:59:57.039Z,64.4
2022-11-26T11:04:56.564Z,62.7
2022-11-26T11:09:56.626Z,59.2
2022-11-26T11:14:56.724Z,68.3
2022-11-26T11:19:56.546Z,82.8
2022-11-26T11:24:57.923Z,98.7
2022-11-26T11:29:59.232Z,118.3
2022-11-26T11:34:56.829Z,138.9
2022-11-26T11:39:56.711Z,119.3
2022-11-26T11:44:57.408Z,84.5
2022-11-26T11:50:06.316Z,77.3
2022-11-26T11:54:56.623Z,100.8
2022-11-26T11:59:56.811Z,138.9
2022-11-26T12:04:56.787Z,114.5
2022-11-26T12:09:56.725Z,88.4
2022-11-26T12:14:56.618Z,77.3
2022-11-26T12:19:56.764Z,66
2022-11-26T12:25:00.149Z,61.2
2022-11-26T12:29:56.472Z,66.3
2022-11-26T12:34:56.574Z,69.4
2022-11-26T12:39:56.617Z,64.4
2022-11-26T12:45:01.866Z,59.7
2022-11-26T12:50:04.304Z,58
2022-11-26T12:55:01.302Z,62
2022-11-26T12:59:58.700Z,70
2022-11-26T13:04:56.453Z,79.5
2022-11-26T13:09:56.718Z,91.7
2022-11-26T13:14:56.486Z,91.8
2022-11-26T13:19:56.521Z,74.8
2022-11-26T13:24:56.372Z,63.6
2022-11-26T13:29:56.724Z,67.7
2022-11-26T13:34:56.565Z,66.2
2022-11-26T13:40:15.760Z,60.4
2022-11-26T13:44:56.559Z,53.8
2022-11-26T13:49:56.533Z,48.8
2022-11-26T13:54:56.578Z,50.2
2022-11-26T13:59:56.452Z,39.4
2022-11-26T14:04:56.554Z,33
2022-11-26T14:09:56.647Z,30.4
2022-11-26T14:14:56.390Z,27.9
2022-11-26T14:20:00.497Z,24.4
2022-11-26T14:24:56.571Z,22.9
2022-11-26T14:29:56.305Z,23.5
2022-11-26T14:34:56.278Z,25.4
2022-11-26T14:39:56.600Z,26.9
2022-11-26T14:44:56.369Z,28.6
2022-11-26T14:49:56.617Z,28.9
2022-11-26T14:54:56.554Z,28
2022-11-26T14:59:56.432Z,25.9
2022-11-26T15:04:57.713Z,21.7
2022-11-26T15:09:56.519Z,17.6
2022-11-26T15:14:56.256Z,13.9
2022-11-26T15:19:58.664Z,10.7
2022-11-26T15:24:56.850Z,8.3
2022-11-26T15:29:56.542Z,5.7
2022-11-26T15:34:56.394Z,3.3
2022-11-26T15:39:56.293Z,1.8
2022-11-26T15:44:57.197Z,0.8
2022-11-26T15:49:56.399Z,0.3
2022-11-26T15:55:12.007Z,0.1
2022-11-26T15:59:56.467Z,0
2022-11-26T16:04:56.445Z,0
2022-11-26T16:09:56.223Z,0
2022-11-26T16:15:07.216Z,0
2022-11-26T16:19:56.964Z,0
2022-11-26T16:24:56.404Z,0
2022-11-26T16:29:56.231Z,0
2022-11-26T16:34:56.640Z,0
2022-11-26T16:39:59.044Z,0
2022-11-26T16:45:01.288Z,0
2022-11-26T16:49:56.367Z,0
2022-11-26T16:54:56.361Z,0
2022-11-26T16:59:56.182Z,0
2022-11-26T17:04:56.416Z,0
2022-11-26T17:09:56.213Z,0
2022-11-26T17:14:56.408Z,0
2022-11-26T17:19:56.502Z,0
2022-11-26T17:24:56.385Z,0
2022-11-26T17:29:56.277Z,0
2022-11-26T17:34:56.292Z,0
2022-11-26T17:39:56.165Z,0
2022-11-26T17:44:56.267Z,0
2022-11-26T17:49:56.303Z,0
2022-11-26T17:54:56.177Z,0
2022-11-26T17:59:56.392Z,0
2022-11-26T18:04:56.732Z,0
2022-11-26T18:09:56.502Z,0
2022-11-26T18:14:56.431Z,0
2022-11-26T18:19:56.283Z,0
2022-11-26T18:24:57.266Z,0
2022-11-26T18:29:56.200Z,0
2022-11-26T18:34:56.148Z,0
2022-11-26T18:39:56.059Z,0
2022-11-26T18:44:56.501Z,0
2022-11-26T18:49:56.297Z,0
2022-11-26T18:54:56.328Z,0
2022-11-26T18:59:56.504Z,0
2022-11-26T19:04:56.108Z,0
2022-11-26T19:09:56.193Z,0
2022-11-26T19:14:56.057Z,0
2022-11-26T19:19:56.313Z,0
2022-11-26T19:24:56.037Z,0
2022-11-26T19:29:56.421Z,0
2022-11-26T19:34:59.030Z,0
2022-11-26T19:39:56.299Z,0
2022-11-26T19:44:56.103Z,0
2022-11-26T19:49:56.389Z,0
2022-11-26T19:54:56.023Z,0
2022-11-26T19:59:56.267Z,0
2022-11-26T20:04:56.280Z,0
2022-11-26T20:09:56.185Z,0
2022-11-26T20:14:56.301Z,0
2022-11-26T20:19:56.241Z,0
2022-11-26T20:24:56.061Z,0
2022-11-26T20:29:56.224Z,0
2022-11-26T20:34:56.110Z,0
2022-11-26T20:39:56.103Z,0
2022-11-26T20:44:56.005Z,0
2022-11-26T20:49:56.148Z,0
2022-11-26T20:54:56.255Z,0
2022-11-26T20:59:55.966Z,0
2022-11-26T21:04:56.217Z,0
2022-11-26T21:09:56.197Z,0
2022-11-26T21:14:55.995Z,0
2022-11-26T21:19:55.952Z,0
2022-11-26T21:24:56.070Z,0
2022-11-26T21:29:56.002Z,0
2022-11-26T21:34:56.194Z,0
2022-11-26T21:39:56.002Z,0
2022-11-26T21:44:56.437Z,0
2022-11-26T21:49:55.992Z,0
2022-11-26T21:54:59.612Z,0
2022-11-26T21:59:56.112Z,0
2022-11-26T22:04:56.117Z,0
2022-11-26T22:09:56.246Z,0
2022-11-26T22:14:56.027Z,0
2022-11-26T22:19:55.990Z,0
2022-11-26T22:24:55.853Z,0
2022-11-26T22:29:56.095Z,0
2022-11-26T22:34:56.168Z,0
2022-11-26T22:39:55.978Z,0
2022-11-26T22:44:56.184Z,0
2022-11-26T22:49:56.175Z,0
2022-11-26T22:54:56.089Z,0
2022-11-26T22:59:55.983Z,0
2022-11-26T23:04:55.973Z,0
2022-11-26T23:09:55.965Z,0
2022-11-26T23:14:56.235Z,0
2022-11-26T23:19:56.184Z,0
2022-11-26T23:24:55.867Z,0
2022-11-26T23:29:56.052Z,0
2022-11-26T23:34:55.817Z,0
2022-11-26T23:39:55.964Z,0
2022-11-26T23:44:56.231Z,0
2022-11-26T23:50:00.664Z,0
2022-11-26T23:54:56.070Z,0
2022-11-26T23:59:56.052Z,0
